Exeland, Wisconsin
Current Conditions -  °F | °C
As of 1:15 PM on Thursday 30 Oct 2014 (Local Time) from KRCX Reporting Station
Overcast Overcast  
Wind Chill: 37°   Ceiling: 5000
Heat Index: 42°   Visibility: 10mi
Dew Point: 34°   Wind: 8mph
Humidity: 73%   Direction: 330°NNW
Pressure: 30.08"   Gusts: NA
Location:  45.67°N, 91.24°W
Report Text: KRCX 301815Z AUTO 33007KT 10SM OVC050 06/01 A3008 RMK AO2 T00550010
Loading
Personal Weather Stations






























Interactive Weather Map New forecast layout! Learn more

10-Day Weather Forecast

Advertisements
Track Severe Weather on mobile